Briefing drone pour Nevers (LFQG)

Rechercher une autre localisation

Conditions de vol :


Nous sommes le : Jeudi 06 octobre 2022
Il est 14:07 UTC (16:07 LT)

Lever de soleil : 05:26 UTC (07:26 LT)
Coucher de soleil : 17:44 UTC (19:44 LT)

Météo

L'essentiel des conditions de vol

VIGILANCE MÉTÉO FRANCE - Nièvre (58)
Pas de vigilances particulieres
METAR de LFQG
LFQG 061400Z AUTO 36005KT 320V050 9999 FEW032 18/12 Q1030

Date d'émission: 06/10/2022
Heure d'émission: 14:00 UTC
Vent: 360° (variable du 320° au 050°) pour 5 KT (9 km/h)
Visibilité horizontale: > 10 km
Plafond :
- Peu de nuages à 3200ft (975m)
Température: 18 °C
Point de rosée: 12 °C
Humidité: 68%
Pression (QNH): 1030 hPa
Prévision 24h pour Nevers
Vent : 148° pour 2 KT (7 km/h)
Temperature Maxi: 15 °C
Temperature Min: 15 °C
Humidité : 76%
Condition : Couvert



Warning: count(): Parameter must be an array or an object that implements Countable in /homepages/6/d509196549/htdocs/droneoxygene/briefing.php on line 743
WEBCAM POUR NEVERS

Réglementation

Voler en sécurité

CARTES AERONAUTIQUE 1/500.000
CARTE AZBA (Reseau basse altitude)
CARTES VAC (LFQG)
SUP AIP




Chargement des AIP...
NOTAM (NEVERS + Terrain à proximité / FIR )




Chargement des NOTAMS...
CONTACT PREFECTURE 58


Avertissement : Les données mises à disposition sont indicatives. Oxygène Drone ne pourra être tenu responsable de dégâts causés aux biens et aux personnes.